This is the latest recevied weather packets stored in our database for station/object LY3FF-10. If no packets are shown the sender has not sent any weather packets the latest 10 day(s).
| Time | Temp. | Humidity | Pressure | Rain* | Wind** | Luminosity | Snow |
|---|---|---|---|---|---|---|---|
| 1777901337 | 27.78° C | 17% | 988.4 hPa | - | - | - | - |
| 1777900494 | 34.44° C | 17% | 988.3 hPa | - | - | - | - |
| 1777899767 | 36.67° C | 17% | 988.3 hPa | - | - | - | - |
| 1777898960 | 28.33° C | 17% | 988.4 hPa | - | - | - | - |
| 1777898136 | 36.11° C | 17% | 988.4 hPa | - | - | - | - |
| 1777897317 | 35.56° C | 17% | 988.4 hPa | - | - | - | - |
| 1777896576 | 27.78° C | 17% | 988.6 hPa | - | - | - | - |
| 1777895787 | 27.78° C | 18% | 988.6 hPa | - | - | - | - |
| 1777894947 | 36.11° C | 17% | 988.7 hPa | - | - | - | - |
| 1777894217 | 36.67° C | 18% | 988.7 hPa | - | - | - | - |
| 1777893382 | 27.22° C | 18% | 988.8 hPa | - | - | - | - |
| 1777892584 | 35.56° C | 18% | 988.9 hPa | - | - | - | - |
| 1777891762 | 26.67° C | 18% | 989.1 hPa | - | - | - | - |
| 1777890977 | 26.67° C | 18% | 989.3 hPa | - | - | - | - |
| 1777890127 | 36.11° C | 20% | 989.3 hPa | - | - | - | - |
| 1777889242 | 26.11° C | 19% | 989.6 hPa | - | - | - | - |
| 1777888432 | 26.11° C | 21% | 989.7 hPa | - | - | - | - |
| 1777887712 | 25.56° C | 21% | 989.8 hPa | - | - | - | - |
| 1777886992 | 25.56° C | 23% | 989.9 hPa | - | - | - | - |
| 1777886137 | 25° C | 23% | 990 hPa | - | - | - | - |
| 1777885402 | 25.56° C | 24% | 990.1 hPa | - | - | - | - |
| 1777884538 | 24.44° C | 27% | 990.1 hPa | - | - | - | - |
| 1777883767 | 24.44° C | 28% | 990.2 hPa | - | - | - | - |
| 1777882922 | 23.89° C | 30% | 990.3 hPa | - | - | - | - |
| 1777882097 | 22.78° C | 32% | 990.2 hPa | - | - | - | - |
* Rain since midnight (hover to see other rain measurements)
** Current wind speed in m/s (hover to see current wind gust speed)